sensor_id;sensor_type;location;lat;lon;timestamp;P1;durP1;ratioP1;P2;durP2;ratioP2
74415;SDS011;62850;42.428;25.618;2023-08-01T00:02:19;11.40;;;8.30;;
74415;SDS011;62850;42.428;25.618;2023-08-01T00:04:45;11.32;;;8.05;;
74415;SDS011;62850;42.428;25.618;2023-08-01T00:07:10;10.88;;;7.90;;
74415;SDS011;62850;42.428;25.618;2023-08-01T00:09:36;10.10;;;7.57;;
74415;SDS011;62850;42.428;25.618;2023-08-01T00:12:01;10.43;;;7.22;;
74415;SDS011;62850;42.428;25.618;2023-08-01T00:14:27;11.73;;;6.75;;
74415;SDS011;62850;42.428;25.618;2023-08-01T00:16:52;8.73;;;6.35;;
74415;SDS011;62850;42.428;25.618;2023-08-01T00:19:19;10.30;;;6.65;;
74415;SDS011;62850;42.428;25.618;2023-08-01T00:21:44;9.35;;;6.40;;
74415;SDS011;62850;42.428;25.618;2023-08-01T00:24:10;8.27;;;6.25;;
74415;SDS011;62850;42.428;25.618;2023-08-01T00:26:36;9.25;;;6.35;;
74415;SDS011;62850;42.428;25.618;2023-08-01T00:29:01;9.93;;;6.40;;
74415;SDS011;62850;42.428;25.618;2023-08-01T00:31:27;10.35;;;7.20;;
74415;SDS011;62850;42.428;25.618;2023-08-01T00:33:52;8.75;;;6.47;;
74415;SDS011;62850;42.428;25.618;2023-08-01T00:36:18;16.52;;;8.52;;
74415;SDS011;62850;42.428;25.618;2023-08-01T00:38:43;11.35;;;8.18;;
74415;SDS011;62850;42.428;25.618;2023-08-01T00:41:09;10.68;;;7.90;;
74415;SDS011;62850;42.428;25.618;2023-08-01T00:43:35;10.45;;;7.43;;
74415;SDS011;62850;42.428;25.618;2023-08-01T00:46:02;10.13;;;7.20;;
74415;SDS011;62850;42.428;25.618;2023-08-01T00:48:29;10.23;;;6.90;;
74415;SDS011;62850;42.428;25.618;2023-08-01T00:51:14;10.18;;;6.40;;
74415;SDS011;62850;42.428;25.618;2023-08-01T00:53:40;10.05;;;6.70;;
74415;SDS011;62850;42.428;25.618;2023-08-01T00:56:06;10.45;;;6.80;;
74415;SDS011;62850;42.428;25.618;2023-08-01T00:58:31;14.10;;;6.38;;
74415;SDS011;62850;42.428;25.618;2023-08-01T01:00:57;7.72;;;5.55;;
74415;SDS011;62850;42.428;25.618;2023-08-01T01:03:24;8.43;;;5.38;;
74415;SDS011;62850;42.428;25.618;2023-08-01T01:05:53;8.18;;;4.85;;
74415;SDS011;62850;42.428;25.618;2023-08-01T01:08:26;6.70;;;4.38;;
74415;SDS011;62850;42.428;25.618;2023-08-01T01:10:51;7.03;;;4.38;;
74415;SDS011;62850;42.428;25.618;2023-08-01T01:13:17;6.28;;;3.75;;
74415;SDS011;62850;42.428;25.618;2023-08-01T01:15:42;7.53;;;4.30;;
74415;SDS011;62850;42.428;25.618;2023-08-01T01:18:08;7.75;;;4.80;;
74415;SDS011;62850;42.428;25.618;2023-08-01T01:20:36;9.15;;;5.60;;
74415;SDS011;62850;42.428;25.618;2023-08-01T01:23:05;7.50;;;4.68;;
74415;SDS011;62850;42.428;25.618;2023-08-01T01:25:32;8.30;;;5.20;;
74415;SDS011;62850;42.428;25.618;2023-08-01T01:27:59;7.13;;;5.35;;
74415;SDS011;62850;42.428;25.618;2023-08-01T01:30:26;7.18;;;4.70;;
74415;SDS011;62850;42.428;25.618;2023-08-01T01:32:53;8.23;;;4.63;;
74415;SDS011;62850;42.428;25.618;2023-08-01T01:35:19;7.85;;;4.70;;
74415;SDS011;62850;42.428;25.618;2023-08-01T01:37:44;6.78;;;4.32;;
74415;SDS011;62850;42.428;25.618;2023-08-01T01:40:10;6.50;;;4.20;;
74415;SDS011;62850;42.428;25.618;2023-08-01T01:42:36;7.80;;;4.63;;
74415;SDS011;62850;42.428;25.618;2023-08-01T01:45:02;6.95;;;4.30;;
74415;SDS011;62850;42.428;25.618;2023-08-01T01:47:27;6.25;;;3.83;;
74415;SDS011;62850;42.428;25.618;2023-08-01T01:49:53;7.53;;;3.90;;
74415;SDS011;62850;42.428;25.618;2023-08-01T01:52:18;5.75;;;3.60;;
74415;SDS011;62850;42.428;25.618;2023-08-01T01:54:44;5.38;;;3.75;;
74415;SDS011;62850;42.428;25.618;2023-08-01T01:57:09;6.72;;;3.97;;
74415;SDS011;62850;42.428;25.618;2023-08-01T01:59:35;5.32;;;3.55;;
74415;SDS011;62850;42.428;25.618;2023-08-01T02:02:00;5.00;;;3.22;;
74415;SDS011;62850;42.428;25.618;2023-08-01T02:04:29;4.65;;;3.13;;
74415;SDS011;62850;42.428;25.618;2023-08-01T02:06:54;4.63;;;2.88;;
74415;SDS011;62850;42.428;25.618;2023-08-01T02:09:20;5.28;;;2.88;;
74415;SDS011;62850;42.428;25.618;2023-08-01T02:11:45;5.40;;;3.08;;
74415;SDS011;62850;42.428;25.618;2023-08-01T02:14:11;4.38;;;2.70;;
74415;SDS011;62850;42.428;25.618;2023-08-01T02:16:36;4.97;;;2.95;;
74415;SDS011;62850;42.428;25.618;2023-08-01T02:19:02;4.50;;;2.83;;
74415;SDS011;62850;42.428;25.618;2023-08-01T02:21:27;6.68;;;3.20;;
74415;SDS011;62850;42.428;25.618;2023-08-01T02:23:53;5.78;;;3.17;;
74415;SDS011;62850;42.428;25.618;2023-08-01T02:26:18;5.32;;;3.05;;
74415;SDS011;62850;42.428;25.618;2023-08-01T02:28:44;10.13;;;3.40;;
74415;SDS011;62850;42.428;25.618;2023-08-01T02:31:09;5.20;;;3.28;;
74415;SDS011;62850;42.428;25.618;2023-08-01T02:33:35;5.13;;;3.08;;
74415;SDS011;62850;42.428;25.618;2023-08-01T02:36:00;5.63;;;3.10;;
74415;SDS011;62850;42.428;25.618;2023-08-01T02:38:26;5.93;;;2.90;;
74415;SDS011;62850;42.428;25.618;2023-08-01T02:40:51;5.10;;;3.17;;
74415;SDS011;62850;42.428;25.618;2023-08-01T02:43:16;4.90;;;2.95;;
74415;SDS011;62850;42.428;25.618;2023-08-01T02:45:42;5.25;;;3.28;;
74415;SDS011;62850;42.428;25.618;2023-08-01T02:48:07;4.78;;;3.00;;
74415;SDS011;62850;42.428;25.618;2023-08-01T02:50:33;7.03;;;3.42;;
74415;SDS011;62850;42.428;25.618;2023-08-01T02:52:58;6.10;;;3.63;;
74415;SDS011;62850;42.428;25.618;2023-08-01T02:55:24;7.10;;;3.78;;
74415;SDS011;62850;42.428;25.618;2023-08-01T02:57:49;7.18;;;4.00;;
74415;SDS011;62850;42.428;25.618;2023-08-01T03:00:15;6.97;;;4.38;;
74415;SDS011;62850;42.428;25.618;2023-08-01T03:02:42;7.28;;;4.20;;
74415;SDS011;62850;42.428;25.618;2023-08-01T03:05:08;7.88;;;4.80;;
74415;SDS011;62850;42.428;25.618;2023-08-01T03:07:35;9.63;;;5.10;;
74415;SDS011;62850;42.428;25.618;2023-08-01T03:10:00;9.80;;;4.53;;
74415;SDS011;62850;42.428;25.618;2023-08-01T03:12:26;8.15;;;5.05;;
74415;SDS011;62850;42.428;25.618;2023-08-01T03:14:52;9.90;;;5.30;;
74415;SDS011;62850;42.428;25.618;2023-08-01T03:17:17;9.85;;;5.50;;
74415;SDS011;62850;42.428;25.618;2023-08-01T03:19:43;9.70;;;5.80;;
74415;SDS011;62850;42.428;25.618;2023-08-01T03:22:09;8.13;;;5.45;;
74415;SDS011;62850;42.428;25.618;2023-08-01T03:24:35;11.27;;;6.63;;
74415;SDS011;62850;42.428;25.618;2023-08-01T03:27:00;9.68;;;6.18;;
74415;SDS011;62850;42.428;25.618;2023-08-01T03:29:26;8.15;;;5.97;;
74415;SDS011;62850;42.428;25.618;2023-08-01T03:31:52;9.20;;;7.10;;
74415;SDS011;62850;42.428;25.618;2023-08-01T03:34:18;9.20;;;6.18;;
74415;SDS011;62850;42.428;25.618;2023-08-01T03:36:43;10.07;;;6.72;;
74415;SDS011;62850;42.428;25.618;2023-08-01T03:39:09;11.77;;;7.00;;
74415;SDS011;62850;42.428;25.618;2023-08-01T03:41:35;10.23;;;6.75;;
74415;SDS011;62850;42.428;25.618;2023-08-01T03:44:00;11.05;;;6.82;;
74415;SDS011;62850;42.428;25.618;2023-08-01T03:46:26;9.95;;;6.80;;
74415;SDS011;62850;42.428;25.618;2023-08-01T03:48:52;10.05;;;7.22;;
74415;SDS011;62850;42.428;25.618;2023-08-01T03:51:17;11.07;;;6.78;;
74415;SDS011;62850;42.428;25.618;2023-08-01T03:53:44;12.68;;;7.15;;
74415;SDS011;62850;42.428;25.618;2023-08-01T03:56:10;9.35;;;6.43;;
74415;SDS011;62850;42.428;25.618;2023-08-01T03:58:36;8.88;;;6.47;;
74415;SDS011;62850;42.428;25.618;2023-08-01T04:01:02;8.30;;;6.32;;
74415;SDS011;62850;42.428;25.618;2023-08-01T04:03:27;8.30;;;6.05;;
74415;SDS011;62850;42.428;25.618;2023-08-01T04:05:53;9.80;;;6.72;;
74415;SDS011;62850;42.428;25.618;2023-08-01T04:08:19;9.93;;;6.60;;
74415;SDS011;62850;42.428;25.618;2023-08-01T04:10:45;10.05;;;6.75;;
74415;SDS011;62850;42.428;25.618;2023-08-01T04:13:10;10.88;;;6.93;;
74415;SDS011;62850;42.428;25.618;2023-08-01T04:15:36;9.65;;;6.63;;
74415;SDS011;62850;42.428;25.618;2023-08-01T04:18:01;9.13;;;6.50;;
74415;SDS011;62850;42.428;25.618;2023-08-01T04:20:27;9.35;;;6.63;;
74415;SDS011;62850;42.428;25.618;2023-08-01T04:22:52;12.30;;;6.93;;
74415;SDS011;62850;42.428;25.618;2023-08-01T04:25:18;10.40;;;6.10;;
74415;SDS011;62850;42.428;25.618;2023-08-01T04:27:43;14.27;;;8.02;;
74415;SDS011;62850;42.428;25.618;2023-08-01T04:30:09;11.80;;;7.63;;
74415;SDS011;62850;42.428;25.618;2023-08-01T04:32:35;146.73;;;48.97;;
74415;SDS011;62850;42.428;25.618;2023-08-01T04:35:00;578.38;;;228.82;;
74415;SDS011;62850;42.428;25.618;2023-08-01T04:37:26;578.30;;;229.88;;
74415;SDS011;62850;42.428;25.618;2023-08-01T04:39:51;485.85;;;183.20;;
74415;SDS011;62850;42.428;25.618;2023-08-01T04:42:17;313.35;;;101.55;;
74415;SDS011;62850;42.428;25.618;2023-08-01T04:44:42;245.70;;;81.88;;
74415;SDS011;62850;42.428;25.618;2023-08-01T04:47:08;102.95;;;34.92;;
74415;SDS011;62850;42.428;25.618;2023-08-01T04:49:33;31.00;;;12.32;;
74415;SDS011;62850;42.428;25.618;2023-08-01T04:51:59;48.55;;;17.55;;
74415;SDS011;62850;42.428;25.618;2023-08-01T04:54:26;52.75;;;21.80;;
74415;SDS011;62850;42.428;25.618;2023-08-01T04:56:52;75.43;;;20.45;;
74415;SDS011;62850;42.428;25.618;2023-08-01T04:59:17;45.47;;;13.95;;
74415;SDS011;62850;42.428;25.618;2023-08-01T05:01:42;38.10;;;11.65;;
74415;SDS011;62850;42.428;25.618;2023-08-01T05:04:08;38.72;;;11.25;;
74415;SDS011;62850;42.428;25.618;2023-08-01T05:06:33;59.33;;;15.00;;
74415;SDS011;62850;42.428;25.618;2023-08-01T05:09:00;88.72;;;15.90;;
74415;SDS011;62850;42.428;25.618;2023-08-01T05:11:25;48.30;;;12.88;;
74415;SDS011;62850;42.428;25.618;2023-08-01T05:13:51;47.08;;;12.20;;
74415;SDS011;62850;42.428;25.618;2023-08-01T05:16:16;23.60;;;8.88;;
74415;SDS011;62850;42.428;25.618;2023-08-01T05:18:42;14.30;;;5.38;;
74415;SDS011;62850;42.428;25.618;2023-08-01T05:21:07;11.15;;;4.38;;
74415;SDS011;62850;42.428;25.618;2023-08-01T05:23:33;11.93;;;5.78;;
74415;SDS011;62850;42.428;25.618;2023-08-01T05:25:58;6.65;;;3.90;;
74415;SDS011;62850;42.428;25.618;2023-08-01T05:28:23;10.02;;;4.18;;
74415;SDS011;62850;42.428;25.618;2023-08-01T05:30:49;7.15;;;4.30;;
74415;SDS011;62850;42.428;25.618;2023-08-01T05:33:14;11.05;;;4.97;;
74415;SDS011;62850;42.428;25.618;2023-08-01T05:35:40;12.15;;;5.43;;
74415;SDS011;62850;42.428;25.618;2023-08-01T05:38:05;7.93;;;4.60;;
74415;SDS011;62850;42.428;25.618;2023-08-01T05:40:31;9.63;;;5.05;;
74415;SDS011;62850;42.428;25.618;2023-08-01T05:42:56;9.18;;;4.88;;
74415;SDS011;62850;42.428;25.618;2023-08-01T05:45:22;10.95;;;6.03;;
74415;SDS011;62850;42.428;25.618;2023-08-01T05:47:47;16.55;;;5.97;;
74415;SDS011;62850;42.428;25.618;2023-08-01T05:50:13;14.27;;;5.88;;
74415;SDS011;62850;42.428;25.618;2023-08-01T05:52:38;14.27;;;6.57;;
74415;SDS011;62850;42.428;25.618;2023-08-01T05:55:04;13.68;;;6.68;;
74415;SDS011;62850;42.428;25.618;2023-08-01T05:57:30;12.35;;;8.90;;
74415;SDS011;62850;42.428;25.618;2023-08-01T05:59:55;13.75;;;7.88;;
74415;SDS011;62850;42.428;25.618;2023-08-01T06:02:21;12.18;;;8.35;;
74415;SDS011;62850;42.428;25.618;2023-08-01T06:04:46;14.70;;;9.45;;
74415;SDS011;62850;42.428;25.618;2023-08-01T06:07:12;12.85;;;9.15;;
74415;SDS011;62850;42.428;25.618;2023-08-01T06:09:37;17.35;;;9.15;;
74415;SDS011;62850;42.428;25.618;2023-08-01T06:12:03;12.32;;;8.27;;
74415;SDS011;62850;42.428;25.618;2023-08-01T06:14:28;11.50;;;7.97;;
74415;SDS011;62850;42.428;25.618;2023-08-01T06:16:54;13.13;;;8.32;;
74415;SDS011;62850;42.428;25.618;2023-08-01T06:19:19;11.38;;;7.82;;
74415;SDS011;62850;42.428;25.618;2023-08-01T06:21:45;13.48;;;8.38;;
74415;SDS011;62850;42.428;25.618;2023-08-01T06:24:10;12.65;;;8.10;;
74415;SDS011;62850;42.428;25.618;2023-08-01T06:26:36;10.90;;;8.23;;
74415;SDS011;62850;42.428;25.618;2023-08-01T06:29:01;10.80;;;7.35;;
74415;SDS011;62850;42.428;25.618;2023-08-01T06:31:27;11.98;;;7.32;;
74415;SDS011;62850;42.428;25.618;2023-08-01T06:33:52;12.38;;;8.07;;
74415;SDS011;62850;42.428;25.618;2023-08-01T06:36:18;13.77;;;8.80;;
74415;SDS011;62850;42.428;25.618;2023-08-01T06:38:43;12.18;;;7.57;;
74415;SDS011;62850;42.428;25.618;2023-08-01T06:41:09;13.68;;;7.65;;
74415;SDS011;62850;42.428;25.618;2023-08-01T06:43:35;12.23;;;7.60;;
74415;SDS011;62850;42.428;25.618;2023-08-01T06:46:03;24.95;;;11.07;;
74415;SDS011;62850;42.428;25.618;2023-08-01T06:48:28;13.48;;;7.75;;
74415;SDS011;62850;42.428;25.618;2023-08-01T06:50:54;17.38;;;9.60;;
74415;SDS011;62850;42.428;25.618;2023-08-01T06:53:20;36.10;;;17.73;;
74415;SDS011;62850;42.428;25.618;2023-08-01T06:55:46;20.25;;;11.02;;
74415;SDS011;62850;42.428;25.618;2023-08-01T06:58:11;15.57;;;9.63;;
74415;SDS011;62850;42.428;25.618;2023-08-01T07:00:37;11.85;;;7.82;;
74415;SDS011;62850;42.428;25.618;2023-08-01T07:03:02;11.88;;;6.45;;
74415;SDS011;62850;42.428;25.618;2023-08-01T07:05:28;9.55;;;6.63;;
74415;SDS011;62850;42.428;25.618;2023-08-01T07:07:54;12.07;;;7.32;;
74415;SDS011;62850;42.428;25.618;2023-08-01T07:10:20;12.75;;;7.95;;
74415;SDS011;62850;42.428;25.618;2023-08-01T07:12:45;11.98;;;7.15;;
74415;SDS011;62850;42.428;25.618;2023-08-01T07:15:11;13.13;;;7.20;;
74415;SDS011;62850;42.428;25.618;2023-08-01T07:17:36;11.00;;;7.90;;
74415;SDS011;62850;42.428;25.618;2023-08-01T07:20:02;8.93;;;6.32;;
74415;SDS011;62850;42.428;25.618;2023-08-01T07:22:27;9.57;;;6.57;;
74415;SDS011;62850;42.428;25.618;2023-08-01T07:24:53;8.57;;;5.97;;
74415;SDS011;62850;42.428;25.618;2023-08-01T07:27:20;10.88;;;8.15;;
74415;SDS011;62850;42.428;25.618;2023-08-01T07:29:46;12.20;;;8.15;;
74415;SDS011;62850;42.428;25.618;2023-08-01T07:32:11;11.25;;;7.20;;
74415;SDS011;62850;42.428;25.618;2023-08-01T07:34:37;10.80;;;7.28;;
74415;SDS011;62850;42.428;25.618;2023-08-01T07:37:02;10.20;;;5.93;;
74415;SDS011;62850;42.428;25.618;2023-08-01T07:39:28;8.77;;;6.25;;
74415;SDS011;62850;42.428;25.618;2023-08-01T07:41:54;11.07;;;7.47;;
74415;SDS011;62850;42.428;25.618;2023-08-01T07:44:20;9.10;;;6.03;;
74415;SDS011;62850;42.428;25.618;2023-08-01T07:46:46;10.07;;;6.05;;
74415;SDS011;62850;42.428;25.618;2023-08-01T07:49:11;9.60;;;6.35;;
74415;SDS011;62850;42.428;25.618;2023-08-01T07:51:37;7.93;;;5.65;;
74415;SDS011;62850;42.428;25.618;2023-08-01T07:54:02;10.93;;;6.22;;
74415;SDS011;62850;42.428;25.618;2023-08-01T07:56:28;7.20;;;5.35;;
74415;SDS011;62850;42.428;25.618;2023-08-01T07:58:53;7.85;;;5.30;;
74415;SDS011;62850;42.428;25.618;2023-08-01T08:01:19;7.03;;;4.90;;
74415;SDS011;62850;42.428;25.618;2023-08-01T08:03:44;9.45;;;6.85;;
74415;SDS011;62850;42.428;25.618;2023-08-01T08:06:10;10.55;;;5.22;;
74415;SDS011;62850;42.428;25.618;2023-08-01T08:08:35;7.25;;;4.70;;
74415;SDS011;62850;42.428;25.618;2023-08-01T08:11:02;7.47;;;4.75;;
74415;SDS011;62850;42.428;25.618;2023-08-01T08:13:27;7.32;;;4.80;;
74415;SDS011;62850;42.428;25.618;2023-08-01T08:15:56;8.48;;;5.70;;
74415;SDS011;62850;42.428;25.618;2023-08-01T08:18:22;10.07;;;5.82;;
74415;SDS011;62850;42.428;25.618;2023-08-01T08:20:48;7.22;;;4.78;;
74415;SDS011;62850;42.428;25.618;2023-08-01T08:23:13;13.07;;;8.45;;
74415;SDS011;62850;42.428;25.618;2023-08-01T08:25:39;6.80;;;4.97;;
74415;SDS011;62850;42.428;25.618;2023-08-01T08:28:05;9.30;;;5.28;;
74415;SDS011;62850;42.428;25.618;2023-08-01T08:30:31;9.88;;;4.32;;
74415;SDS011;62850;42.428;25.618;2023-08-01T08:32:57;6.72;;;4.78;;
74415;SDS011;62850;42.428;25.618;2023-08-01T08:35:25;9.35;;;6.50;;
74415;SDS011;62850;42.428;25.618;2023-08-01T08:37:51;7.35;;;5.10;;
74415;SDS011;62850;42.428;25.618;2023-08-01T08:40:16;7.20;;;5.40;;
74415;SDS011;62850;42.428;25.618;2023-08-01T08:42:42;9.38;;;5.03;;
74415;SDS011;62850;42.428;25.618;2023-08-01T08:45:09;7.90;;;5.22;;
74415;SDS011;62850;42.428;25.618;2023-08-01T08:47:38;6.65;;;4.72;;
74415;SDS011;62850;42.428;25.618;2023-08-01T08:50:07;7.18;;;4.57;;
74415;SDS011;62850;42.428;25.618;2023-08-01T08:52:34;7.07;;;4.75;;
74415;SDS011;62850;42.428;25.618;2023-08-01T08:55:00;8.50;;;4.93;;
74415;SDS011;62850;42.428;25.618;2023-08-01T08:57:27;6.03;;;4.50;;
74415;SDS011;62850;42.428;25.618;2023-08-01T08:59:54;7.22;;;4.30;;
74415;SDS011;62850;42.428;25.618;2023-08-01T09:02:21;6.55;;;4.70;;
74415;SDS011;62850;42.428;25.618;2023-08-01T09:04:47;6.07;;;4.65;;
74415;SDS011;62850;42.428;25.618;2023-08-01T09:07:12;6.47;;;5.00;;
74415;SDS011;62850;42.428;25.618;2023-08-01T09:09:40;7.60;;;5.10;;
74415;SDS011;62850;42.428;25.618;2023-08-01T09:12:06;7.55;;;4.75;;
74415;SDS011;62850;42.428;25.618;2023-08-01T09:14:33;10.15;;;5.25;;
74415;SDS011;62850;42.428;25.618;2023-08-01T09:17:09;6.82;;;4.68;;
74415;SDS011;62850;42.428;25.618;2023-08-01T09:19:35;5.90;;;4.32;;
74415;SDS011;62850;42.428;25.618;2023-08-01T09:22:01;6.15;;;4.53;;
74415;SDS011;62850;42.428;25.618;2023-08-01T09:24:27;6.10;;;4.57;;
74415;SDS011;62850;42.428;25.618;2023-08-01T09:26:52;5.93;;;4.43;;
74415;SDS011;62850;42.428;25.618;2023-08-01T09:29:26;6.13;;;4.53;;
74415;SDS011;62850;42.428;25.618;2023-08-01T09:31:52;6.25;;;4.70;;
74415;SDS011;62850;42.428;25.618;2023-08-01T09:34:20;8.20;;;5.47;;
74415;SDS011;62850;42.428;25.618;2023-08-01T09:36:47;7.10;;;4.57;;
74415;SDS011;62850;42.428;25.618;2023-08-01T09:39:20;7.32;;;4.95;;
74415;SDS011;62850;42.428;25.618;2023-08-01T09:41:46;7.65;;;5.20;;
74415;SDS011;62850;42.428;25.618;2023-08-01T09:44:21;7.38;;;5.75;;
74415;SDS011;62850;42.428;25.618;2023-08-01T09:46:56;7.25;;;4.90;;
74415;SDS011;62850;42.428;25.618;2023-08-01T09:49:23;8.32;;;5.38;;
74415;SDS011;62850;42.428;25.618;2023-08-01T09:51:48;7.22;;;4.85;;
74415;SDS011;62850;42.428;25.618;2023-08-01T09:54:16;8.07;;;5.28;;
74415;SDS011;62850;42.428;25.618;2023-08-01T09:56:46;5.80;;;4.50;;
74415;SDS011;62850;42.428;25.618;2023-08-01T09:59:13;6.70;;;4.95;;
74415;SDS011;62850;42.428;25.618;2023-08-01T10:01:47;6.78;;;4.50;;
74415;SDS011;62850;42.428;25.618;2023-08-01T10:04:15;7.07;;;4.63;;
74415;SDS011;62850;42.428;25.618;2023-08-01T10:06:43;7.47;;;5.28;;
74415;SDS011;62850;42.428;25.618;2023-08-01T10:09:14;7.25;;;5.28;;
74415;SDS011;62850;42.428;25.618;2023-08-01T10:11:41;6.60;;;4.75;;
74415;SDS011;62850;42.428;25.618;2023-08-01T10:14:07;8.38;;;5.20;;
74415;SDS011;62850;42.428;25.618;2023-08-01T10:16:34;7.55;;;5.10;;
74415;SDS011;62850;42.428;25.618;2023-08-01T10:19:02;8.07;;;5.25;;
74415;SDS011;62850;42.428;25.618;2023-08-01T10:21:31;6.53;;;4.80;;
74415;SDS011;62850;42.428;25.618;2023-08-01T10:23:57;7.40;;;5.28;;
74415;SDS011;62850;42.428;25.618;2023-08-01T10:26:23;6.88;;;4.70;;
74415;SDS011;62850;42.428;25.618;2023-08-01T10:28:50;6.90;;;5.03;;
74415;SDS011;62850;42.428;25.618;2023-08-01T10:31:18;5.95;;;4.45;;
74415;SDS011;62850;42.428;25.618;2023-08-01T10:33:45;6.57;;;4.60;;
74415;SDS011;62850;42.428;25.618;2023-08-01T10:41:19;6.95;;;4.90;;
74415;SDS011;62850;42.428;25.618;2023-08-01T10:43:50;5.57;;;4.25;;
74415;SDS011;62850;42.428;25.618;2023-08-01T10:46:16;6.80;;;4.50;;
74415;SDS011;62850;42.428;25.618;2023-08-01T10:48:51;6.30;;;5.03;;
74415;SDS011;62850;42.428;25.618;2023-08-01T10:51:17;8.55;;;4.72;;
74415;SDS011;62850;42.428;25.618;2023-08-01T10:53:43;6.45;;;4.72;;
74415;SDS011;62850;42.428;25.618;2023-08-01T10:56:15;6.95;;;4.80;;
74415;SDS011;62850;42.428;25.618;2023-08-01T10:58:44;7.95;;;5.03;;
74415;SDS011;62850;42.428;25.618;2023-08-01T11:01:10;6.18;;;4.82;;
74415;SDS011;62850;42.428;25.618;2023-08-01T11:03:36;8.55;;;4.72;;
74415;SDS011;62850;42.428;25.618;2023-08-01T11:06:02;7.47;;;5.25;;
74415;SDS011;62850;42.428;25.618;2023-08-01T11:08:38;8.23;;;5.20;;
74415;SDS011;62850;42.428;25.618;2023-08-01T11:11:05;7.22;;;4.40;;
74415;SDS011;62850;42.428;25.618;2023-08-01T11:13:35;9.40;;;4.60;;
74415;SDS011;62850;42.428;25.618;2023-08-01T11:16:04;6.78;;;4.88;;
74415;SDS011;62850;42.428;25.618;2023-08-01T11:18:43;7.38;;;4.97;;
74415;SDS011;62850;42.428;25.618;2023-08-01T11:21:09;6.55;;;4.68;;
74415;SDS011;62850;42.428;25.618;2023-08-01T11:23:35;6.40;;;4.93;;
74415;SDS011;62850;42.428;25.618;2023-08-01T11:26:06;7.18;;;5.03;;
74415;SDS011;62850;42.428;25.618;2023-08-01T11:28:32;7.57;;;4.63;;
74415;SDS011;62850;42.428;25.618;2023-08-01T11:30:58;7.15;;;4.90;;
74415;SDS011;62850;42.428;25.618;2023-08-01T11:33:23;7.40;;;4.95;;
74415;SDS011;62850;42.428;25.618;2023-08-01T11:35:53;6.68;;;4.28;;
74415;SDS011;62850;42.428;25.618;2023-08-01T11:38:22;6.30;;;4.65;;
74415;SDS011;62850;42.428;25.618;2023-08-01T11:40:50;7.13;;;4.18;;
74415;SDS011;62850;42.428;25.618;2023-08-01T11:43:16;8.05;;;4.47;;
74415;SDS011;62850;42.428;25.618;2023-08-01T11:45:48;7.35;;;4.90;;
74415;SDS011;62850;42.428;25.618;2023-08-01T11:48:22;8.07;;;5.20;;
74415;SDS011;62850;42.428;25.618;2023-08-01T11:50:48;7.78;;;4.22;;
74415;SDS011;62850;42.428;25.618;2023-08-01T11:53:21;6.72;;;4.60;;
74415;SDS011;62850;42.428;25.618;2023-08-01T11:55:47;6.18;;;4.35;;
74415;SDS011;62850;42.428;25.618;2023-08-01T11:58:14;5.72;;;4.45;;
74415;SDS011;62850;42.428;25.618;2023-08-01T12:00:40;5.57;;;4.40;;
74415;SDS011;62850;42.428;25.618;2023-08-01T12:03:10;6.47;;;4.85;;
74415;SDS011;62850;42.428;25.618;2023-08-01T12:05:38;7.50;;;4.65;;
74415;SDS011;62850;42.428;25.618;2023-08-01T12:08:13;5.63;;;4.18;;
74415;SDS011;62850;42.428;25.618;2023-08-01T12:10:43;5.88;;;4.53;;
74415;SDS011;62850;42.428;25.618;2023-08-01T12:13:20;11.18;;;7.18;;
74415;SDS011;62850;42.428;25.618;2023-08-01T12:15:50;7.03;;;5.50;;
74415;SDS011;62850;42.428;25.618;2023-08-01T12:18:23;7.43;;;5.03;;
74415;SDS011;62850;42.428;25.618;2023-08-01T12:20:50;6.05;;;4.45;;
74415;SDS011;62850;42.428;25.618;2023-08-01T12:23:16;6.72;;;4.43;;
74415;SDS011;62850;42.428;25.618;2023-08-01T12:25:42;6.18;;;4.60;;
74415;SDS011;62850;42.428;25.618;2023-08-01T12:28:07;6.78;;;4.50;;
74415;SDS011;62850;42.428;25.618;2023-08-01T12:30:33;6.22;;;4.35;;
74415;SDS011;62850;42.428;25.618;2023-08-01T12:32:58;6.15;;;4.25;;
74415;SDS011;62850;42.428;25.618;2023-08-01T12:35:25;5.93;;;4.63;;
74415;SDS011;62850;42.428;25.618;2023-08-01T12:37:52;6.38;;;4.55;;
74415;SDS011;62850;42.428;25.618;2023-08-01T12:40:18;6.70;;;4.60;;
74415;SDS011;62850;42.428;25.618;2023-08-01T12:42:44;6.00;;;4.43;;
74415;SDS011;62850;42.428;25.618;2023-08-01T12:45:09;6.63;;;4.47;;
74415;SDS011;62850;42.428;25.618;2023-08-01T12:47:35;5.68;;;4.22;;
74415;SDS011;62850;42.428;25.618;2023-08-01T12:50:01;5.10;;;3.97;;
74415;SDS011;62850;42.428;25.618;2023-08-01T12:52:26;5.57;;;3.97;;
74415;SDS011;62850;42.428;25.618;2023-08-01T12:54:52;6.28;;;4.15;;
74415;SDS011;62850;42.428;25.618;2023-08-01T12:57:18;5.75;;;4.40;;
74415;SDS011;62850;42.428;25.618;2023-08-01T12:59:44;5.40;;;3.85;;
74415;SDS011;62850;42.428;25.618;2023-08-01T13:02:09;5.82;;;4.00;;
74415;SDS011;62850;42.428;25.618;2023-08-01T13:04:35;8.52;;;4.32;;
74415;SDS011;62850;42.428;25.618;2023-08-01T13:07:01;8.30;;;4.00;;
74415;SDS011;62850;42.428;25.618;2023-08-01T13:09:26;5.88;;;4.40;;
74415;SDS011;62850;42.428;25.618;2023-08-01T13:11:51;6.40;;;4.40;;
74415;SDS011;62850;42.428;25.618;2023-08-01T13:14:18;6.65;;;4.30;;
74415;SDS011;62850;42.428;25.618;2023-08-01T13:16:43;7.47;;;5.05;;
74415;SDS011;62850;42.428;25.618;2023-08-01T13:19:09;5.03;;;3.67;;
74415;SDS011;62850;42.428;25.618;2023-08-01T13:21:34;7.15;;;5.05;;
74415;SDS011;62850;42.428;25.618;2023-08-01T13:24:00;5.85;;;4.07;;
74415;SDS011;62850;42.428;25.618;2023-08-01T13:26:33;6.88;;;4.40;;
74415;SDS011;62850;42.428;25.618;2023-08-01T13:28:59;6.15;;;4.43;;
74415;SDS011;62850;42.428;25.618;2023-08-01T13:31:27;5.90;;;4.20;;
74415;SDS011;62850;42.428;25.618;2023-08-01T13:33:54;5.10;;;4.00;;
74415;SDS011;62850;42.428;25.618;2023-08-01T13:36:22;6.43;;;4.50;;
74415;SDS011;62850;42.428;25.618;2023-08-01T13:38:49;5.10;;;3.90;;
74415;SDS011;62850;42.428;25.618;2023-08-01T13:41:14;5.30;;;3.80;;
74415;SDS011;62850;42.428;25.618;2023-08-01T13:43:40;5.03;;;3.85;;
74415;SDS011;62850;42.428;25.618;2023-08-01T13:46:14;5.30;;;4.00;;
74415;SDS011;62850;42.428;25.618;2023-08-01T13:48:43;5.55;;;4.10;;
74415;SDS011;62850;42.428;25.618;2023-08-01T13:51:09;4.80;;;3.50;;
74415;SDS011;62850;42.428;25.618;2023-08-01T13:53:35;6.45;;;3.85;;
74415;SDS011;62850;42.428;25.618;2023-08-01T13:56:06;5.93;;;4.00;;
74415;SDS011;62850;42.428;25.618;2023-08-01T13:58:32;6.82;;;3.72;;
74415;SDS011;62850;42.428;25.618;2023-08-01T14:01:07;6.00;;;3.80;;
74415;SDS011;62850;42.428;25.618;2023-08-01T14:03:34;4.93;;;3.80;;
74415;SDS011;62850;42.428;25.618;2023-08-01T14:06:05;6.68;;;4.15;;
74415;SDS011;62850;42.428;25.618;2023-08-01T14:08:32;5.05;;;3.60;;
74415;SDS011;62850;42.428;25.618;2023-08-01T14:10:58;6.13;;;3.92;;
74415;SDS011;62850;42.428;25.618;2023-08-01T14:13:24;6.65;;;3.95;;
74415;SDS011;62850;42.428;25.618;2023-08-01T14:15:50;6.75;;;4.10;;
74415;SDS011;62850;42.428;25.618;2023-08-01T14:18:16;5.75;;;4.18;;
74415;SDS011;62850;42.428;25.618;2023-08-01T14:20:42;4.78;;;3.42;;
74415;SDS011;62850;42.428;25.618;2023-08-01T14:23:07;6.18;;;4.00;;
74415;SDS011;62850;42.428;25.618;2023-08-01T14:25:33;7.45;;;4.28;;
74415;SDS011;62850;42.428;25.618;2023-08-01T14:27:59;5.60;;;3.70;;
74415;SDS011;62850;42.428;25.618;2023-08-01T14:30:25;5.53;;;3.83;;